sensor_id;sensor_type;location;lat;lon;timestamp;temperature;humidity
55121;DHT22;41019;48.512;9.036;2024-03-08T00:00:00;4.50;96.90
55121;DHT22;41019;48.512;9.036;2024-03-08T00:02:37;4.50;97.00
55121;DHT22;41019;48.512;9.036;2024-03-08T00:05:05;4.50;96.80
55121;DHT22;41019;48.512;9.036;2024-03-08T00:07:31;4.40;97.00
55121;DHT22;41019;48.512;9.036;2024-03-08T00:09:58;4.40;96.90
55121;DHT22;41019;48.512;9.036;2024-03-08T00:12:24;4.40;96.80
55121;DHT22;41019;48.512;9.036;2024-03-08T00:14:51;4.30;96.90
55121;DHT22;41019;48.512;9.036;2024-03-08T00:17:18;4.30;96.70
55121;DHT22;41019;48.512;9.036;2024-03-08T00:19:44;4.30;97.00
55121;DHT22;41019;48.512;9.036;2024-03-08T00:22:10;4.20;97.10
55121;DHT22;41019;48.512;9.036;2024-03-08T00:24:37;4.20;97.20
55121;DHT22;41019;48.512;9.036;2024-03-08T00:27:03;4.20;97.10
55121;DHT22;41019;48.512;9.036;2024-03-08T00:29:30;4.10;97.20
55121;DHT22;41019;48.512;9.036;2024-03-08T00:31:56;4.10;97.00
55121;DHT22;41019;48.512;9.036;2024-03-08T00:34:22;4.10;97.30
55121;DHT22;41019;48.512;9.036;2024-03-08T00:36:48;4.00;97.30
55121;DHT22;41019;48.512;9.036;2024-03-08T00:39:14;4.00;97.30
55121;DHT22;41019;48.512;9.036;2024-03-08T00:41:40;4.00;97.10
55121;DHT22;41019;48.512;9.036;2024-03-08T00:44:06;4.00;97.20
55121;DHT22;41019;48.512;9.036;2024-03-08T00:46:32;4.00;97.10
55121;DHT22;41019;48.512;9.036;2024-03-08T00:48:59;3.90;97.30
55121;DHT22;41019;48.512;9.036;2024-03-08T00:51:25;3.90;97.20
55121;DHT22;41019;48.512;9.036;2024-03-08T00:53:51;3.90;97.30
55121;DHT22;41019;48.512;9.036;2024-03-08T00:56:16;3.90;97.40
55121;DHT22;41019;48.512;9.036;2024-03-08T00:58:42;3.90;97.30
55121;DHT22;41019;48.512;9.036;2024-03-08T01:01:08;3.90;97.30
55121;DHT22;41019;48.512;9.036;2024-03-08T01:03:36;3.80;97.40
55121;DHT22;41019;48.512;9.036;2024-03-08T01:06:02;3.80;97.40
55121;DHT22;41019;48.512;9.036;2024-03-08T01:08:28;3.80;97.50
55121;DHT22;41019;48.512;9.036;2024-03-08T01:10:54;3.80;97.20
55121;DHT22;41019;48.512;9.036;2024-03-08T01:13:20;3.80;97.40
55121;DHT22;41019;48.512;9.036;2024-03-08T01:15:47;3.70;97.50
55121;DHT22;41019;48.512;9.036;2024-03-08T01:18:13;3.70;97.40
55121;DHT22;41019;48.512;9.036;2024-03-08T01:20:38;3.70;97.50
55121;DHT22;41019;48.512;9.036;2024-03-08T01:23:05;3.70;97.50
55121;DHT22;41019;48.512;9.036;2024-03-08T01:25:38;3.70;97.40
55121;DHT22;41019;48.512;9.036;2024-03-08T01:28:04;3.70;97.40
55121;DHT22;41019;48.512;9.036;2024-03-08T01:30:30;3.70;97.50
55121;DHT22;41019;48.512;9.036;2024-03-08T01:32:58;3.70;97.40
55121;DHT22;41019;48.512;9.036;2024-03-08T01:35:24;3.70;97.30
55121;DHT22;41019;48.512;9.036;2024-03-08T01:37:52;3.70;97.20
55121;DHT22;41019;48.512;9.036;2024-03-08T01:40:18;3.60;97.30
55121;DHT22;41019;48.512;9.036;2024-03-08T01:42:44;3.60;97.30
55121;DHT22;41019;48.512;9.036;2024-03-08T01:45:10;3.60;97.40
55121;DHT22;41019;48.512;9.036;2024-03-08T01:47:37;3.60;97.10
55121;DHT22;41019;48.512;9.036;2024-03-08T01:50:03;3.50;97.10
55121;DHT22;41019;48.512;9.036;2024-03-08T01:52:30;3.50;97.50
55121;DHT22;41019;48.512;9.036;2024-03-08T01:54:59;3.40;97.70
55121;DHT22;41019;48.512;9.036;2024-03-08T01:57:28;3.30;97.60
55121;DHT22;41019;48.512;9.036;2024-03-08T01:59:56;3.20;97.60
55121;DHT22;41019;48.512;9.036;2024-03-08T02:02:22;3.20;98.00
55121;DHT22;41019;48.512;9.036;2024-03-08T02:04:49;3.20;98.10
55121;DHT22;41019;48.512;9.036;2024-03-08T02:07:18;3.10;97.80
55121;DHT22;41019;48.512;9.036;2024-03-08T02:09:44;3.10;98.20
55121;DHT22;41019;48.512;9.036;2024-03-08T02:12:10;3.00;98.00
55121;DHT22;41019;48.512;9.036;2024-03-08T02:14:38;3.00;97.90
55121;DHT22;41019;48.512;9.036;2024-03-08T02:17:06;3.00;98.20
55121;DHT22;41019;48.512;9.036;2024-03-08T02:19:31;2.90;98.00
55121;DHT22;41019;48.512;9.036;2024-03-08T02:21:58;2.90;98.10
55121;DHT22;41019;48.512;9.036;2024-03-08T02:24:25;2.80;98.50
55121;DHT22;41019;48.512;9.036;2024-03-08T02:26:51;2.70;98.50
55121;DHT22;41019;48.512;9.036;2024-03-08T02:29:17;2.70;98.30
55121;DHT22;41019;48.512;9.036;2024-03-08T02:31:43;2.70;98.10
55121;DHT22;41019;48.512;9.036;2024-03-08T02:34:09;2.70;98.90
55121;DHT22;41019;48.512;9.036;2024-03-08T02:36:35;2.60;98.80
55121;DHT22;41019;48.512;9.036;2024-03-08T02:39:04;2.60;99.00
55121;DHT22;41019;48.512;9.036;2024-03-08T02:41:31;2.60;99.30
55121;DHT22;41019;48.512;9.036;2024-03-08T02:43:56;2.50;99.20
55121;DHT22;41019;48.512;9.036;2024-03-08T02:46:22;2.50;99.10
55121;DHT22;41019;48.512;9.036;2024-03-08T02:48:48;2.50;99.00
55121;DHT22;41019;48.512;9.036;2024-03-08T02:51:14;2.40;99.10
55121;DHT22;41019;48.512;9.036;2024-03-08T02:53:41;2.40;99.10
55121;DHT22;41019;48.512;9.036;2024-03-08T02:56:08;2.40;99.40
55121;DHT22;41019;48.512;9.036;2024-03-08T02:58:38;2.40;99.30
55121;DHT22;41019;48.512;9.036;2024-03-08T03:01:04;2.30;99.30
55121;DHT22;41019;48.512;9.036;2024-03-08T03:03:30;2.30;99.50
55121;DHT22;41019;48.512;9.036;2024-03-08T03:05:56;2.40;99.50
55121;DHT22;41019;48.512;9.036;2024-03-08T03:08:22;2.40;99.50
55121;DHT22;41019;48.512;9.036;2024-03-08T03:10:48;2.40;99.40
55121;DHT22;41019;48.512;9.036;2024-03-08T03:13:14;2.40;99.10
55121;DHT22;41019;48.512;9.036;2024-03-08T03:15:40;2.40;99.40
55121;DHT22;41019;48.512;9.036;2024-03-08T03:18:08;2.40;99.30
55121;DHT22;41019;48.512;9.036;2024-03-08T03:20:34;2.30;99.10
55121;DHT22;41019;48.512;9.036;2024-03-08T03:23:09;2.30;99.50
55121;DHT22;41019;48.512;9.036;2024-03-08T03:25:35;2.30;99.60
55121;DHT22;41019;48.512;9.036;2024-03-08T03:28:02;2.30;99.80
55121;DHT22;41019;48.512;9.036;2024-03-08T03:30:28;2.20;99.50
55121;DHT22;41019;48.512;9.036;2024-03-08T03:32:59;2.20;99.50
55121;DHT22;41019;48.512;9.036;2024-03-08T03:35:32;2.20;99.30
55121;DHT22;41019;48.512;9.036;2024-03-08T03:37:59;2.20;99.30
55121;DHT22;41019;48.512;9.036;2024-03-08T03:40:34;2.10;99.50
55121;DHT22;41019;48.512;9.036;2024-03-08T03:43:00;2.10;99.20
55121;DHT22;41019;48.512;9.036;2024-03-08T03:45:27;2.00;99.10
55121;DHT22;41019;48.512;9.036;2024-03-08T03:47:52;2.00;99.00
55121;DHT22;41019;48.512;9.036;2024-03-08T03:50:19;1.90;99.30
55121;DHT22;41019;48.512;9.036;2024-03-08T03:52:46;1.90;99.40
55121;DHT22;41019;48.512;9.036;2024-03-08T03:55:13;1.80;99.30
55121;DHT22;41019;48.512;9.036;2024-03-08T03:57:39;1.80;99.00
55121;DHT22;41019;48.512;9.036;2024-03-08T04:00:06;1.80;99.90
55121;DHT22;41019;48.512;9.036;2024-03-08T04:02:38;1.80;99.80
55121;DHT22;41019;48.512;9.036;2024-03-08T04:05:06;1.70;99.90
55121;DHT22;41019;48.512;9.036;2024-03-08T04:07:32;1.70;99.90
55121;DHT22;41019;48.512;9.036;2024-03-08T04:09:58;1.70;99.90
55121;DHT22;41019;48.512;9.036;2024-03-08T04:12:24;1.70;99.90
55121;DHT22;41019;48.512;9.036;2024-03-08T04:14:50;1.70;99.90
55121;DHT22;41019;48.512;9.036;2024-03-08T04:17:16;1.70;99.90
55121;DHT22;41019;48.512;9.036;2024-03-08T04:19:43;1.70;99.90
55121;DHT22;41019;48.512;9.036;2024-03-08T04:22:09;1.70;99.90
55121;DHT22;41019;48.512;9.036;2024-03-08T04:24:35;1.60;99.90
55121;DHT22;41019;48.512;9.036;2024-03-08T04:27:01;1.60;99.80
55121;DHT22;41019;48.512;9.036;2024-03-08T04:29:27;1.60;99.80
55121;DHT22;41019;48.512;9.036;2024-03-08T04:31:53;1.10;99.80
55121;DHT22;41019;48.512;9.036;2024-03-08T04:34:21;1.50;99.90
55121;DHT22;41019;48.512;9.036;2024-03-08T04:36:48;1.50;99.90
55121;DHT22;41019;48.512;9.036;2024-03-08T04:39:14;1.40;99.90
55121;DHT22;41019;48.512;9.036;2024-03-08T04:41:43;1.40;99.90
55121;DHT22;41019;48.512;9.036;2024-03-08T04:44:12;1.40;99.90
55121;DHT22;41019;48.512;9.036;2024-03-08T04:46:38;1.40;99.90
55121;DHT22;41019;48.512;9.036;2024-03-08T04:49:04;1.50;99.90
55121;DHT22;41019;48.512;9.036;2024-03-08T04:51:30;1.50;99.90
55121;DHT22;41019;48.512;9.036;2024-03-08T04:53:56;1.50;99.90
55121;DHT22;41019;48.512;9.036;2024-03-08T04:56:22;1.60;99.90
55121;DHT22;41019;48.512;9.036;2024-03-08T04:58:49;1.60;99.90
55121;DHT22;41019;48.512;9.036;2024-03-08T05:01:15;1.70;99.90
55121;DHT22;41019;48.512;9.036;2024-03-08T05:03:44;1.70;99.90
55121;DHT22;41019;48.512;9.036;2024-03-08T05:06:10;1.70;99.90
55121;DHT22;41019;48.512;9.036;2024-03-08T05:08:35;1.80;99.90
55121;DHT22;41019;48.512;9.036;2024-03-08T05:11:01;1.80;99.90
55121;DHT22;41019;48.512;9.036;2024-03-08T05:13:30;1.80;99.90
55121;DHT22;41019;48.512;9.036;2024-03-08T05:15:57;1.90;99.90
55121;DHT22;41019;48.512;9.036;2024-03-08T05:18:25;1.90;99.90
55121;DHT22;41019;48.512;9.036;2024-03-08T05:20:54;1.90;99.90
55121;DHT22;41019;48.512;9.036;2024-03-08T05:23:19;2.00;99.90
55121;DHT22;41019;48.512;9.036;2024-03-08T05:25:46;2.00;99.90
55121;DHT22;41019;48.512;9.036;2024-03-08T05:28:14;2.00;99.90
55121;DHT22;41019;48.512;9.036;2024-03-08T05:30:40;2.10;99.90
55121;DHT22;41019;48.512;9.036;2024-03-08T05:33:06;2.10;99.90
55121;DHT22;41019;48.512;9.036;2024-03-08T05:35:36;2.20;99.90
55121;DHT22;41019;48.512;9.036;2024-03-08T05:38:02;2.20;99.90
55121;DHT22;41019;48.512;9.036;2024-03-08T05:40:28;2.20;99.90
55121;DHT22;41019;48.512;9.036;2024-03-08T05:42:58;2.30;99.90
55121;DHT22;41019;48.512;9.036;2024-03-08T05:45:25;2.30;99.90
55121;DHT22;41019;48.512;9.036;2024-03-08T05:47:51;2.40;99.90
55121;DHT22;41019;48.512;9.036;2024-03-08T05:50:17;2.40;99.90
55121;DHT22;41019;48.512;9.036;2024-03-08T05:52:43;2.40;99.90
55121;DHT22;41019;48.512;9.036;2024-03-08T05:55:09;2.40;99.90
55121;DHT22;41019;48.512;9.036;2024-03-08T05:57:35;2.40;99.90
55121;DHT22;41019;48.512;9.036;2024-03-08T06:00:08;2.50;99.90
55121;DHT22;41019;48.512;9.036;2024-03-08T06:02:38;2.50;99.90
55121;DHT22;41019;48.512;9.036;2024-03-08T06:05:11;2.50;99.90
55121;DHT22;41019;48.512;9.036;2024-03-08T06:07:39;2.50;99.90
55121;DHT22;41019;48.512;9.036;2024-03-08T06:10:10;2.50;99.90
55121;DHT22;41019;48.512;9.036;2024-03-08T06:12:37;2.60;99.90
55121;DHT22;41019;48.512;9.036;2024-03-08T06:15:10;2.70;99.90
55121;DHT22;41019;48.512;9.036;2024-03-08T06:17:43;2.60;99.90
55121;DHT22;41019;48.512;9.036;2024-03-08T06:20:09;2.60;99.90
55121;DHT22;41019;48.512;9.036;2024-03-08T06:22:39;2.70;99.90
55121;DHT22;41019;48.512;9.036;2024-03-08T06:25:09;2.70;99.90
55121;DHT22;41019;48.512;9.036;2024-03-08T06:27:36;2.70;99.90
55121;DHT22;41019;48.512;9.036;2024-03-08T06:30:03;2.80;99.90
55121;DHT22;41019;48.512;9.036;2024-03-08T06:32:30;2.90;99.90
55121;DHT22;41019;48.512;9.036;2024-03-08T06:34:58;2.90;99.90
55121;DHT22;41019;48.512;9.036;2024-03-08T06:37:25;2.90;99.90
55121;DHT22;41019;48.512;9.036;2024-03-08T06:39:50;3.00;99.90
55121;DHT22;41019;48.512;9.036;2024-03-08T06:42:17;3.00;99.90
55121;DHT22;41019;48.512;9.036;2024-03-08T06:44:43;3.00;99.90
55121;DHT22;41019;48.512;9.036;2024-03-08T06:47:15;3.00;99.90
55121;DHT22;41019;48.512;9.036;2024-03-08T06:49:42;3.10;99.90
55121;DHT22;41019;48.512;9.036;2024-03-08T06:52:12;3.10;99.90
55121;DHT22;41019;48.512;9.036;2024-03-08T06:54:38;3.10;99.90
55121;DHT22;41019;48.512;9.036;2024-03-08T06:57:05;3.20;99.90
55121;DHT22;41019;48.512;9.036;2024-03-08T06:59:31;3.30;99.90
55121;DHT22;41019;48.512;9.036;2024-03-08T07:01:57;3.30;99.90
55121;DHT22;41019;48.512;9.036;2024-03-08T07:04:25;3.40;99.90
55121;DHT22;41019;48.512;9.036;2024-03-08T07:06:55;3.40;99.90
55121;DHT22;41019;48.512;9.036;2024-03-08T07:09:24;3.50;99.90
55121;DHT22;41019;48.512;9.036;2024-03-08T07:11:51;3.50;99.90
55121;DHT22;41019;48.512;9.036;2024-03-08T07:14:24;3.60;99.90
55121;DHT22;41019;48.512;9.036;2024-03-08T07:16:50;3.70;99.90
55121;DHT22;41019;48.512;9.036;2024-03-08T07:19:17;3.70;99.60
55121;DHT22;41019;48.512;9.036;2024-03-08T07:21:46;3.80;99.50
55121;DHT22;41019;48.512;9.036;2024-03-08T07:24:13;3.80;99.30
55121;DHT22;41019;48.512;9.036;2024-03-08T07:26:42;3.90;99.20
55121;DHT22;41019;48.512;9.036;2024-03-08T07:29:08;3.90;99.00
55121;DHT22;41019;48.512;9.036;2024-03-08T07:31:34;3.90;98.70
55121;DHT22;41019;48.512;9.036;2024-03-08T07:34:05;4.00;98.70
55121;DHT22;41019;48.512;9.036;2024-03-08T07:36:33;4.10;98.70
55121;DHT22;41019;48.512;9.036;2024-03-08T07:39:01;4.10;98.40
55121;DHT22;41019;48.512;9.036;2024-03-08T07:41:27;4.10;98.50
55121;DHT22;41019;48.512;9.036;2024-03-08T07:43:54;4.20;98.60
55121;DHT22;41019;48.512;9.036;2024-03-08T07:46:20;4.20;98.30
55121;DHT22;41019;48.512;9.036;2024-03-08T07:48:46;4.30;98.30
55121;DHT22;41019;48.512;9.036;2024-03-08T07:51:16;4.30;98.30
55121;DHT22;41019;48.512;9.036;2024-03-08T07:53:43;4.40;98.30
55121;DHT22;41019;48.512;9.036;2024-03-08T07:56:10;4.40;98.00
55121;DHT22;41019;48.512;9.036;2024-03-08T07:58:39;4.50;97.90
55121;DHT22;41019;48.512;9.036;2024-03-08T08:01:06;4.50;97.80
55121;DHT22;41019;48.512;9.036;2024-03-08T08:03:32;4.60;97.60
55121;DHT22;41019;48.512;9.036;2024-03-08T08:05:58;4.70;97.40
55121;DHT22;41019;48.512;9.036;2024-03-08T08:08:24;4.80;97.30
55121;DHT22;41019;48.512;9.036;2024-03-08T08:10:52;4.80;97.00
55121;DHT22;41019;48.512;9.036;2024-03-08T08:13:18;4.90;96.90
55121;DHT22;41019;48.512;9.036;2024-03-08T08:15:43;4.90;96.60
55121;DHT22;41019;48.512;9.036;2024-03-08T08:18:09;5.00;96.20
55121;DHT22;41019;48.512;9.036;2024-03-08T08:20:35;5.00;95.90
55121;DHT22;41019;48.512;9.036;2024-03-08T08:23:01;5.10;95.90
55121;DHT22;41019;48.512;9.036;2024-03-08T08:25:27;5.10;95.90
55121;DHT22;41019;48.512;9.036;2024-03-08T08:27:53;5.10;95.80
55121;DHT22;41019;48.512;9.036;2024-03-08T08:30:19;5.20;95.30
55121;DHT22;41019;48.512;9.036;2024-03-08T08:32:46;5.20;95.00
55121;DHT22;41019;48.512;9.036;2024-03-08T08:35:12;5.20;95.60
55121;DHT22;41019;48.512;9.036;2024-03-08T08:37:39;5.30;95.60
55121;DHT22;41019;48.512;9.036;2024-03-08T08:40:06;5.30;95.30
55121;DHT22;41019;48.512;9.036;2024-03-08T08:42:36;5.30;95.60
55121;DHT22;41019;48.512;9.036;2024-03-08T08:45:05;5.40;95.50
55121;DHT22;41019;48.512;9.036;2024-03-08T08:47:36;5.40;95.10
55121;DHT22;41019;48.512;9.036;2024-03-08T08:50:04;5.50;95.00
55121;DHT22;41019;48.512;9.036;2024-03-08T08:52:31;5.50;94.50
55121;DHT22;41019;48.512;9.036;2024-03-08T08:54:57;5.50;94.60
55121;DHT22;41019;48.512;9.036;2024-03-08T08:57:24;5.60;94.80
55121;DHT22;41019;48.512;9.036;2024-03-08T08:59:49;5.60;94.50
55121;DHT22;41019;48.512;9.036;2024-03-08T09:02:16;5.50;94.30
55121;DHT22;41019;48.512;9.036;2024-03-08T09:04:43;5.60;94.20
55121;DHT22;41019;48.512;9.036;2024-03-08T09:07:14;5.60;94.50
55121;DHT22;41019;48.512;9.036;2024-03-08T09:09:42;5.70;94.30
55121;DHT22;41019;48.512;9.036;2024-03-08T09:12:07;5.70;94.20
55121;DHT22;41019;48.512;9.036;2024-03-08T09:14:33;5.60;94.00
55121;DHT22;41019;48.512;9.036;2024-03-08T09:17:00;5.60;94.00
55121;DHT22;41019;48.512;9.036;2024-03-08T09:19:26;5.70;94.00
55121;DHT22;41019;48.512;9.036;2024-03-08T09:21:51;5.70;93.90
55121;DHT22;41019;48.512;9.036;2024-03-08T09:24:18;5.80;94.20
55121;DHT22;41019;48.512;9.036;2024-03-08T09:26:43;5.90;93.90
55121;DHT22;41019;48.512;9.036;2024-03-08T09:29:09;6.00;93.70
55121;DHT22;41019;48.512;9.036;2024-03-08T09:31:36;6.00;93.80
55121;DHT22;41019;48.512;9.036;2024-03-08T09:34:03;6.10;93.50
55121;DHT22;41019;48.512;9.036;2024-03-08T09:36:29;6.10;93.40
55121;DHT22;41019;48.512;9.036;2024-03-08T09:38:58;6.20;93.70
55121;DHT22;41019;48.512;9.036;2024-03-08T09:41:24;6.20;93.30
55121;DHT22;41019;48.512;9.036;2024-03-08T09:43:51;6.30;93.60
55121;DHT22;41019;48.512;9.036;2024-03-08T09:46:19;6.30;93.20
55121;DHT22;41019;48.512;9.036;2024-03-08T09:48:46;6.40;93.30
55121;DHT22;41019;48.512;9.036;2024-03-08T09:51:13;6.40;92.70
55121;DHT22;41019;48.512;9.036;2024-03-08T09:53:41;6.50;92.80
55121;DHT22;41019;48.512;9.036;2024-03-08T09:56:12;6.40;92.80
55121;DHT22;41019;48.512;9.036;2024-03-08T09:58:38;6.50;92.70
55121;DHT22;41019;48.512;9.036;2024-03-08T10:01:20;6.50;93.10
55121;DHT22;41019;48.512;9.036;2024-03-08T10:03:47;6.50;92.90
55121;DHT22;41019;48.512;9.036;2024-03-08T10:06:14;6.60;92.60
55121;DHT22;41019;48.512;9.036;2024-03-08T10:08:40;6.60;92.70
55121;DHT22;41019;48.512;9.036;2024-03-08T10:11:07;6.70;93.00
55121;DHT22;41019;48.512;9.036;2024-03-08T10:13:33;6.80;93.10
55121;DHT22;41019;48.512;9.036;2024-03-08T10:16:00;6.80;92.20
55121;DHT22;41019;48.512;9.036;2024-03-08T10:18:26;6.90;92.20
55121;DHT22;41019;48.512;9.036;2024-03-08T10:21:03;6.90;92.20
55121;DHT22;41019;48.512;9.036;2024-03-08T10:23:30;7.10;92.10
55121;DHT22;41019;48.512;9.036;2024-03-08T10:25:56;7.00;91.80
55121;DHT22;41019;48.512;9.036;2024-03-08T10:28:24;7.10;92.10
55121;DHT22;41019;48.512;9.036;2024-03-08T10:30:56;7.20;91.70
55121;DHT22;41019;48.512;9.036;2024-03-08T10:33:23;7.30;92.00
55121;DHT22;41019;48.512;9.036;2024-03-08T10:35:50;7.40;91.80
55121;DHT22;41019;48.512;9.036;2024-03-08T10:38:20;7.50;91.70
55121;DHT22;41019;48.512;9.036;2024-03-08T10:40:49;7.60;91.50
55121;DHT22;41019;48.512;9.036;2024-03-08T10:43:24;7.70;91.40
55121;DHT22;41019;48.512;9.036;2024-03-08T10:46:15;8.00;91.40
55121;DHT22;41019;48.512;9.036;2024-03-08T10:48:50;8.00;91.10
55121;DHT22;41019;48.512;9.036;2024-03-08T10:51:19;8.10;90.60
55121;DHT22;41019;48.512;9.036;2024-03-08T10:53:47;8.00;90.70
55121;DHT22;41019;48.512;9.036;2024-03-08T10:56:14;8.10;90.40
55121;DHT22;41019;48.512;9.036;2024-03-08T10:58:42;8.10;90.50
55121;DHT22;41019;48.512;9.036;2024-03-08T11:01:10;8.10;90.30
55121;DHT22;41019;48.512;9.036;2024-03-08T11:06:07;8.40;90.40
55121;DHT22;41019;48.512;9.036;2024-03-08T11:08:36;8.40;90.00
55121;DHT22;41019;48.512;9.036;2024-03-08T11:11:02;8.40;90.10
55121;DHT22;41019;48.512;9.036;2024-03-08T11:13:43;8.70;90.40
55121;DHT22;41019;48.512;9.036;2024-03-08T11:16:11;8.60;89.20
55121;DHT22;41019;48.512;9.036;2024-03-08T11:18:38;8.70;88.50
55121;DHT22;41019;48.512;9.036;2024-03-08T11:21:04;8.80;88.50
55121;DHT22;41019;48.512;9.036;2024-03-08T11:23:38;9.00;88.60
55121;DHT22;41019;48.512;9.036;2024-03-08T11:26:24;9.10;88.40
55121;DHT22;41019;48.512;9.036;2024-03-08T11:28:50;9.20;87.10
55121;DHT22;41019;48.512;9.036;2024-03-08T11:31:22;9.30;87.70
55121;DHT22;41019;48.512;9.036;2024-03-08T11:33:48;9.20;86.60
55121;DHT22;41019;48.512;9.036;2024-03-08T11:36:23;9.30;87.10
55121;DHT22;41019;48.512;9.036;2024-03-08T11:38:52;9.20;87.40
55121;DHT22;41019;48.512;9.036;2024-03-08T11:41:20;9.30;86.90
55121;DHT22;41019;48.512;9.036;2024-03-08T11:43:47;9.60;86.80
55121;DHT22;41019;48.512;9.036;2024-03-08T11:46:15;9.70;86.50
55121;DHT22;41019;48.512;9.036;2024-03-08T11:48:43;10.10;85.10
55121;DHT22;41019;48.512;9.036;2024-03-08T11:51:14;10.30;84.10
55121;DHT22;41019;48.512;9.036;2024-03-08T11:53:41;10.60;83.80
55121;DHT22;41019;48.512;9.036;2024-03-08T11:56:11;10.90;83.20
55121;DHT22;41019;48.512;9.036;2024-03-08T11:58:38;11.00;82.00
55121;DHT22;41019;48.512;9.036;2024-03-08T12:01:08;11.20;80.90
55121;DHT22;41019;48.512;9.036;2024-03-08T12:03:42;11.40;80.40
55121;DHT22;41019;48.512;9.036;2024-03-08T12:06:09;11.50;79.40
55121;DHT22;41019;48.512;9.036;2024-03-08T12:08:35;11.40;79.30
55121;DHT22;41019;48.512;9.036;2024-03-08T12:11:02;11.40;78.70
55121;DHT22;41019;48.512;9.036;2024-03-08T12:13:33;11.30;79.60
55121;DHT22;41019;48.512;9.036;2024-03-08T12:16:00;11.40;81.60
55121;DHT22;41019;48.512;9.036;2024-03-08T12:18:37;11.30;79.30
55121;DHT22;41019;48.512;9.036;2024-03-08T12:21:07;11.30;78.70
55121;DHT22;41019;48.512;9.036;2024-03-08T12:23:34;11.40;78.40
55121;DHT22;41019;48.512;9.036;2024-03-08T12:28:40;11.60;80.40
55121;DHT22;41019;48.512;9.036;2024-03-08T12:31:08;11.70;78.40
55121;DHT22;41019;48.512;9.036;2024-03-08T12:33:52;11.90;77.60
55121;DHT22;41019;48.512;9.036;2024-03-08T12:36:20;11.90;76.30
55121;DHT22;41019;48.512;9.036;2024-03-08T12:38:46;12.10;76.60
55121;DHT22;41019;48.512;9.036;2024-03-08T12:41:14;12.00;76.00
55121;DHT22;41019;48.512;9.036;2024-03-08T12:43:41;12.00;76.20
55121;DHT22;41019;48.512;9.036;2024-03-08T12:46:07;12.10;75.40
55121;DHT22;41019;48.512;9.036;2024-03-08T12:48:37;12.00;76.40
55121;DHT22;41019;48.512;9.036;2024-03-08T12:51:07;12.10;76.20
55121;DHT22;41019;48.512;9.036;2024-03-08T12:53:33;12.10;75.80
55121;DHT22;41019;48.512;9.036;2024-03-08T12:55:59;12.00;75.50
55121;DHT22;41019;48.512;9.036;2024-03-08T12:58:25;12.10;75.10
55121;DHT22;41019;48.512;9.036;2024-03-08T13:00:51;12.10;74.80
55121;DHT22;41019;48.512;9.036;2024-03-08T13:03:18;12.20;75.70
55121;DHT22;41019;48.512;9.036;2024-03-08T13:05:44;12.20;76.10
55121;DHT22;41019;48.512;9.036;2024-03-08T13:08:11;12.20;76.40
55121;DHT22;41019;48.512;9.036;2024-03-08T13:10:42;12.30;75.70
55121;DHT22;41019;48.512;9.036;2024-03-08T13:13:11;12.30;75.60
55121;DHT22;41019;48.512;9.036;2024-03-08T13:15:37;12.30;75.70
55121;DHT22;41019;48.512;9.036;2024-03-08T13:18:06;12.20;75.20
55121;DHT22;41019;48.512;9.036;2024-03-08T13:20:34;12.20;75.10
55121;DHT22;41019;48.512;9.036;2024-03-08T13:23:04;12.20;74.70
55121;DHT22;41019;48.512;9.036;2024-03-08T13:25:33;12.30;74.70
55121;DHT22;41019;48.512;9.036;2024-03-08T13:27:59;12.30;75.40
55121;DHT22;41019;48.512;9.036;2024-03-08T13:30:26;12.30;75.70
55121;DHT22;41019;48.512;9.036;2024-03-08T13:32:53;12.30;74.90
55121;DHT22;41019;48.512;9.036;2024-03-08T13:35:20;12.30;75.00
55121;DHT22;41019;48.512;9.036;2024-03-08T13:37:51;12.30;75.20
55121;DHT22;41019;48.512;9.036;2024-03-08T13:40:17;12.40;73.90
55121;DHT22;41019;48.512;9.036;2024-03-08T13:42:47;12.30;74.30
55121;DHT22;41019;48.512;9.036;2024-03-08T13:45:15;12.30;74.50
55121;DHT22;41019;48.512;9.036;2024-03-08T13:47:48;12.30;74.90
55121;DHT22;41019;48.512;9.036;2024-03-08T13:50:17;12.20;74.90
55121;DHT22;41019;48.512;9.036;2024-03-08T13:52:50;12.20;75.00
55121;DHT22;41019;48.512;9.036;2024-03-08T13:55:20;12.10;74.80
55121;DHT22;41019;48.512;9.036;2024-03-08T13:57:50;12.00;75.70
55121;DHT22;41019;48.512;9.036;2024-03-08T14:00:19;11.90;75.60
55121;DHT22;41019;48.512;9.036;2024-03-08T14:02:50;11.90;75.90
55121;DHT22;41019;48.512;9.036;2024-03-08T14:05:16;12.00;76.80
55121;DHT22;41019;48.512;9.036;2024-03-08T14:07:45;11.90;76.10
55121;DHT22;41019;48.512;9.036;2024-03-08T14:10:14;12.00;75.80
55121;DHT22;41019;48.512;9.036;2024-03-08T14:12:41;11.90;77.30
55121;DHT22;41019;48.512;9.036;2024-03-08T14:15:10;12.10;76.00
55121;DHT22;41019;48.512;9.036;2024-03-08T14:17:36;11.80;76.10
55121;DHT22;41019;48.512;9.036;2024-03-08T14:20:03;11.80;77.10
55121;DHT22;41019;48.512;9.036;2024-03-08T14:22:29;11.80;76.80
55121;DHT22;41019;48.512;9.036;2024-03-08T14:24:57;11.70;77.20
55121;DHT22;41019;48.512;9.036;2024-03-08T14:27:23;11.60;77.00
55121;DHT22;41019;48.512;9.036;2024-03-08T14:29:49;11.50;77.30
55121;DHT22;41019;48.512;9.036;2024-03-08T14:32:15;11.60;77.30
55121;DHT22;41019;48.512;9.036;2024-03-08T14:34:41;11.50;77.10
55121;DHT22;41019;48.512;9.036;2024-03-08T14:37:07;11.50;77.10
55121;DHT22;41019;48.512;9.036;2024-03-08T14:39:37;11.50;78.00
55121;DHT22;41019;48.512;9.036;2024-03-08T14:42:03;11.30;76.80
55121;DHT22;41019;48.512;9.036;2024-03-08T14:44:30;11.30;76.90
55121;DHT22;41019;48.512;9.036;2024-03-08T14:46:56;11.40;77.20
55121;DHT22;41019;48.512;9.036;2024-03-08T14:49:22;11.40;77.40
55121;DHT22;41019;48.512;9.036;2024-03-08T14:51:48;11.40;77.10
55121;DHT22;41019;48.512;9.036;2024-03-08T14:54:15;11.40;76.80
55121;DHT22;41019;48.512;9.036;2024-03-08T14:56:40;11.40;77.20
55121;DHT22;41019;48.512;9.036;2024-03-08T14:59:07;11.40;76.70
55121;DHT22;41019;48.512;9.036;2024-03-08T15:01:37;11.40;76.80
55121;DHT22;41019;48.512;9.036;2024-03-08T15:04:03;11.50;77.00
55121;DHT22;41019;48.512;9.036;2024-03-08T15:06:37;11.40;77.40
55121;DHT22;41019;48.512;9.036;2024-03-08T15:09:04;11.40;77.40
55121;DHT22;41019;48.512;9.036;2024-03-08T15:11:41;11.40;77.50
55121;DHT22;41019;48.512;9.036;2024-03-08T15:14:08;11.40;77.50
55121;DHT22;41019;48.512;9.036;2024-03-08T15:16:37;11.40;77.60
55121;DHT22;41019;48.512;9.036;2024-03-08T15:19:06;11.40;77.80
55121;DHT22;41019;48.512;9.036;2024-03-08T15:21:31;11.40;77.40
55121;DHT22;41019;48.512;9.036;2024-03-08T15:23:58;11.30;77.70
55121;DHT22;41019;48.512;9.036;2024-03-08T15:26:24;11.30;77.60
55121;DHT22;41019;48.512;9.036;2024-03-08T15:28:51;11.30;77.60
55121;DHT22;41019;48.512;9.036;2024-03-08T15:31:19;11.30;78.30
55121;DHT22;41019;48.512;9.036;2024-03-08T15:33:46;11.30;78.70
55121;DHT22;41019;48.512;9.036;2024-03-08T15:36:17;11.30;78.20
55121;DHT22;41019;48.512;9.036;2024-03-08T15:38:46;11.30;77.80
55121;DHT22;41019;48.512;9.036;2024-03-08T15:41:15;11.20;77.60
55121;DHT22;41019;48.512;9.036;2024-03-08T15:43:43;11.30;78.00
55121;DHT22;41019;48.512;9.036;2024-03-08T15:46:10;11.20;78.40
55121;DHT22;41019;48.512;9.036;2024-03-08T15:48:38;11.30;78.70